createdAt,value
2024-03-14T00:02:28.918Z,100.00
2024-03-14T00:07:30.681Z,100.00
2024-03-14T00:12:32.965Z,100.00
2024-03-14T00:17:34.845Z,100.00
2024-03-14T00:22:36.655Z,100.00
2024-03-14T00:27:38.419Z,100.00
2024-03-14T00:32:40.222Z,100.00
2024-03-14T00:37:42.057Z,100.00
2024-03-14T00:42:46.802Z,100.00
2024-03-14T00:47:50.017Z,100.00
2024-03-14T00:52:52.224Z,100.00
2024-03-14T00:57:54.149Z,100.00
2024-03-14T01:02:56.003Z,100.00
2024-03-14T01:07:57.753Z,100.00
2024-03-14T01:12:59.545Z,100.00
2024-03-14T01:18:01.413Z,100.00
2024-03-14T01:23:03.200Z,100.00
2024-03-14T01:28:05.218Z,100.00
2024-03-14T01:33:07.058Z,100.00
2024-03-14T01:38:09.074Z,100.00
2024-03-14T01:43:10.822Z,100.00
2024-03-14T01:48:12.720Z,100.00
2024-03-14T01:53:14.751Z,100.00
2024-03-14T01:58:16.548Z,100.00
2024-03-14T02:03:18.460Z,100.00
2024-03-14T02:08:20.371Z,100.00
2024-03-14T02:13:22.211Z,100.00
2024-03-14T02:18:24.012Z,100.00
2024-03-14T02:23:25.890Z,100.00
2024-03-14T02:28:27.633Z,100.00
2024-03-14T02:33:29.464Z,100.00
2024-03-14T02:38:31.538Z,100.00
2024-03-14T02:43:33.351Z,100.00
2024-03-14T02:48:35.162Z,100.00
2024-03-14T02:53:37.019Z,100.00
2024-03-14T02:58:39.047Z,100.00
2024-03-14T03:03:41.047Z,100.00
2024-03-14T03:08:42.876Z,100.00
2024-03-14T03:13:44.666Z,100.00
2024-03-14T03:18:46.549Z,100.00
2024-03-14T03:23:48.390Z,100.00
2024-03-14T03:28:50.206Z,100.00
2024-03-14T03:33:51.973Z,100.00
2024-03-14T03:38:53.821Z,100.00
2024-03-14T03:43:55.905Z,100.00
2024-03-14T03:48:57.832Z,100.00
2024-03-14T03:53:59.942Z,100.00
2024-03-14T03:59:01.928Z,100.00
2024-03-14T04:04:03.774Z,100.00
2024-03-14T04:09:05.620Z,100.00
2024-03-14T04:14:07.439Z,100.00
2024-03-14T04:19:09.176Z,100.00
2024-03-14T04:24:11.012Z,100.00
2024-03-14T04:29:12.888Z,100.00
2024-03-14T04:34:14.752Z,100.00
2024-03-14T04:39:16.708Z,100.00
2024-03-14T04:44:18.481Z,100.00
2024-03-14T04:49:20.242Z,100.00
2024-03-14T04:54:22.810Z,100.00
2024-03-14T04:59:24.760Z,100.00
2024-03-14T05:04:26.798Z,100.00
2024-03-14T05:09:28.605Z,100.00
2024-03-14T05:14:30.425Z,100.00
2024-03-14T05:19:32.290Z,100.00
2024-03-14T05:24:34.140Z,100.00
2024-03-14T05:29:35.988Z,100.00
2024-03-14T05:34:37.774Z,100.00
2024-03-14T05:39:39.668Z,100.00
2024-03-14T05:44:41.614Z,100.00
2024-03-14T05:49:43.469Z,100.00
2024-03-14T05:54:45.678Z,100.00
2024-03-14T05:59:47.575Z,100.00
2024-03-14T06:04:49.343Z,100.00
2024-03-14T06:09:51.119Z,100.00
2024-03-14T06:14:52.995Z,100.00
2024-03-14T06:19:54.764Z,100.00
2024-03-14T06:24:56.509Z,100.00
2024-03-14T06:29:58.324Z,100.00
2024-03-14T06:35:00.159Z,100.00
2024-03-14T06:40:02.208Z,100.00
2024-03-14T06:45:04.570Z,100.00
2024-03-14T06:50:07.621Z,100.00
2024-03-14T06:55:09.427Z,100.00
2024-03-14T07:00:11.834Z,100.00
2024-03-14T07:05:13.677Z,100.00
2024-03-14T07:10:15.556Z,100.00
2024-03-14T07:15:17.987Z,100.00
2024-03-14T07:20:20.102Z,100.00
2024-03-14T07:25:22.004Z,100.00
2024-03-14T07:30:23.859Z,100.00
2024-03-14T07:35:25.680Z,100.00
2024-03-14T07:40:27.622Z,100.00
2024-03-14T07:45:29.468Z,100.00
2024-03-14T07:50:31.353Z,100.00
2024-03-14T07:55:33.438Z,100.00
2024-03-14T08:00:35.532Z,100.00
2024-03-14T08:05:37.630Z,100.00
2024-03-14T08:10:39.433Z,100.00
2024-03-14T08:15:41.848Z,100.00
2024-03-14T08:20:43.689Z,100.00
2024-03-14T08:25:45.476Z,100.00
2024-03-14T08:30:47.250Z,100.00
2024-03-14T08:35:49.120Z,100.00
2024-03-14T08:40:50.963Z,100.00
2024-03-14T08:45:53.117Z,100.00
2024-03-14T08:50:55.131Z,100.00
2024-03-14T08:55:57.400Z,100.00
2024-03-14T09:00:59.494Z,96.48
2024-03-14T09:06:01.366Z,95.90
2024-03-14T09:11:03.251Z,91.95
2024-03-14T09:16:05.578Z,93.36
2024-03-14T09:21:07.408Z,89.89
2024-03-14T09:26:09.189Z,91.80
2024-03-14T09:31:11.024Z,87.88
2024-03-14T09:36:12.913Z,84.74
2024-03-14T09:41:21.803Z,83.59
2024-03-14T09:46:25.295Z,83.43
2024-03-14T09:51:27.156Z,84.33
2024-03-14T09:56:28.913Z,85.61
2024-03-14T10:01:30.929Z,83.83
2024-03-14T10:06:32.895Z,84.17
2024-03-14T10:11:34.767Z,81.65
2024-03-14T10:16:36.572Z,83.49
2024-03-14T10:21:38.373Z,82.67
2024-03-14T10:26:40.885Z,85.31
2024-03-14T10:31:42.673Z,84.33
2024-03-14T10:36:44.608Z,82.26
2024-03-14T10:41:46.521Z,84.84
2024-03-14T10:46:48.299Z,84.04
2024-03-14T10:51:50.062Z,82.61
2024-03-14T10:56:52.169Z,83.54
2024-03-14T11:01:54.271Z,81.80
2024-03-14T11:06:56.427Z,80.97
2024-03-14T11:11:58.470Z,80.75
2024-03-14T11:17:02.177Z,82.22
2024-03-14T11:22:04.258Z,80.70
2024-03-14T11:27:06.097Z,80.95
2024-03-14T11:32:10.770Z,80.88
2024-03-14T11:37:12.527Z,79.36
2024-03-14T11:42:14.682Z,78.13
2024-03-14T11:47:16.277Z,78.95
2024-03-14T11:52:18.115Z,78.14
2024-03-14T11:57:20.251Z,77.77
2024-03-14T12:02:22.713Z,76.81
2024-03-14T12:07:24.801Z,75.37
2024-03-14T12:12:26.673Z,75.99
2024-03-14T12:17:28.556Z,73.83
2024-03-14T12:22:30.397Z,68.78
2024-03-14T12:27:32.882Z,70.67
2024-03-14T12:32:34.713Z,71.19
2024-03-14T12:37:36.586Z,73.09
2024-03-14T12:42:38.471Z,70.97
2024-03-14T12:47:40.432Z,68.98
2024-03-14T12:52:42.042Z,69.27
2024-03-14T12:57:47.912Z,66.84
2024-03-14T13:02:49.861Z,68.12
2024-03-14T13:08:04.428Z,70.06
2024-03-14T13:13:06.216Z,69.05
2024-03-14T13:18:14.554Z,64.06
2024-03-14T13:23:16.503Z,62.79
2024-03-14T13:28:18.239Z,65.84
2024-03-14T13:33:21.412Z,63.45
2024-03-14T13:38:23.470Z,62.46
2024-03-14T13:43:25.776Z,61.30
2024-03-14T13:48:27.642Z,61.86
2024-03-14T13:58:34.133Z,58.34
2024-03-14T14:03:37.548Z,58.20
2024-03-14T14:08:39.939Z,56.35
2024-03-14T14:13:42.260Z,56.69
2024-03-14T14:18:44.110Z,55.60
2024-03-14T14:23:45.935Z,52.66
2024-03-14T14:28:47.554Z,55.33
2024-03-14T14:33:49.472Z,52.33
2024-03-14T14:38:51.313Z,54.42
2024-03-14T14:43:53.035Z,55.31
2024-03-14T14:48:54.840Z,54.20
2024-03-14T14:53:56.837Z,56.42
2024-03-14T14:58:58.698Z,55.41
2024-03-14T15:04:00.473Z,56.58
2024-03-14T15:09:02.329Z,55.73
2024-03-14T15:14:04.218Z,57.55
2024-03-14T15:19:06.877Z,55.31
2024-03-14T15:24:09.127Z,57.01
2024-03-14T15:29:11.741Z,58.29
2024-03-14T15:34:13.499Z,56.87
2024-03-14T15:39:15.148Z,57.28
2024-03-14T15:44:17.096Z,58.12
2024-03-14T15:49:18.891Z,56.57
2024-03-14T15:54:20.438Z,56.72
2024-03-14T15:59:22.395Z,55.97
2024-03-14T16:04:24.365Z,53.58
2024-03-14T16:09:26.383Z,52.45
2024-03-14T16:14:28.429Z,54.39
2024-03-14T16:19:30.343Z,55.17
2024-03-14T16:24:32.358Z,55.30
2024-03-14T16:29:34.219Z,54.38
2024-03-14T16:34:35.881Z,57.29
2024-03-14T16:39:38.231Z,59.53
2024-03-14T16:44:40.280Z,58.79
2024-03-14T16:49:41.795Z,60.52
2024-03-14T16:54:43.736Z,62.13
2024-03-14T16:59:45.729Z,63.36
2024-03-14T17:06:42.954Z,66.17
2024-03-14T17:11:46.035Z,67.77
2024-03-14T17:16:55.269Z,68.59
2024-03-14T17:22:05.960Z,70.30
2024-03-14T17:27:13.543Z,71.04
2024-03-14T17:32:16.750Z,72.70
2024-03-14T17:37:19.768Z,74.37
2024-03-14T17:42:23.197Z,76.08
2024-03-14T17:47:28.582Z,78.29
2024-03-14T17:52:31.689Z,79.95
2024-03-14T17:57:34.853Z,82.30
2024-03-14T18:02:38.023Z,83.82
2024-03-14T18:07:41.346Z,84.53
2024-03-14T18:12:45.283Z,85.86
2024-03-14T18:17:48.950Z,87.01
2024-03-14T18:22:51.934Z,88.04
2024-03-14T18:27:55.171Z,88.22
2024-03-14T18:32:58.477Z,88.23
2024-03-14T18:38:01.617Z,89.42
2024-03-14T18:43:07.132Z,91.37
2024-03-14T18:48:10.694Z,92.93
2024-03-14T18:53:21.264Z,95.14
2024-03-14T18:58:29.259Z,95.67
2024-03-14T19:03:34.191Z,96.64
2024-03-14T19:08:37.316Z,98.07
2024-03-14T19:13:40.690Z,100.00
2024-03-14T19:18:44.180Z,100.00
2024-03-14T19:23:47.537Z,100.00
2024-03-14T19:28:50.546Z,100.00
2024-03-14T19:33:53.944Z,100.00
2024-03-14T19:38:59.253Z,100.00
2024-03-14T19:44:03.978Z,100.00
2024-03-14T19:49:07.375Z,100.00
2024-03-14T19:54:10.610Z,100.00
2024-03-14T19:59:13.699Z,100.00
2024-03-14T20:04:16.847Z,100.00
2024-03-14T20:09:20.719Z,100.00
2024-03-14T20:14:24.075Z,100.00
2024-03-14T20:19:27.068Z,100.00
2024-03-14T20:24:30.252Z,100.00
2024-03-14T20:29:35.123Z,100.00
2024-03-14T20:34:39.818Z,100.00
2024-03-14T20:39:43.539Z,100.00
2024-03-14T20:44:47.136Z,100.00
2024-03-14T20:49:50.052Z,100.00
2024-03-14T20:54:55.044Z,100.00
2024-03-14T20:59:58.620Z,100.00
2024-03-14T21:05:02.921Z,100.00
2024-03-14T21:10:06.657Z,100.00
2024-03-14T21:15:10.267Z,100.00
2024-03-14T21:20:18.959Z,100.00
2024-03-14T21:25:22.411Z,100.00
2024-03-14T21:30:26.468Z,100.00
2024-03-14T21:35:29.649Z,100.00
2024-03-14T21:40:32.612Z,100.00
2024-03-14T21:45:36.209Z,100.00
2024-03-14T21:50:39.580Z,100.00
2024-03-14T21:55:42.714Z,100.00
2024-03-14T22:00:45.911Z,100.00
2024-03-14T22:05:49.458Z,100.00
2024-03-14T22:10:53.000Z,100.00
2024-03-14T22:15:56.132Z,100.00
2024-03-14T22:20:59.437Z,100.00
2024-03-14T22:26:04.078Z,100.00
2024-03-14T22:31:12.004Z,100.00
2024-03-14T22:36:16.067Z,100.00
2024-03-14T22:41:19.070Z,100.00
2024-03-14T22:46:22.429Z,100.00
2024-03-14T22:51:25.484Z,100.00
2024-03-14T22:56:28.487Z,100.00
2024-03-14T23:01:35.968Z,100.00
2024-03-14T23:06:39.376Z,100.00
2024-03-14T23:11:42.436Z,100.00
2024-03-14T23:16:45.785Z,100.00
2024-03-14T23:21:49.653Z,100.00
2024-03-14T23:26:53.264Z,100.00
2024-03-14T23:31:56.259Z,100.00
2024-03-14T23:36:59.329Z,100.00
2024-03-14T23:42:02.916Z,100.00
2024-03-14T23:47:06.071Z,100.00
2024-03-14T23:52:09.017Z,100.00
2024-03-14T23:57:12.020Z,100.00
